createdAt,value
2018-01-11T00:02:26.840Z,10.65
2018-01-11T00:05:10.292Z,10.88
2018-01-11T00:07:47.385Z,10.79
2018-01-11T00:10:19.371Z,11.04
2018-01-11T00:12:51.870Z,10.97
2018-01-11T00:15:23.562Z,10.54
2018-01-11T00:17:55.040Z,10.60
2018-01-11T00:20:29.813Z,10.96
2018-01-11T00:23:01.215Z,10.91
2018-01-11T00:25:32.812Z,11.15
2018-01-11T00:28:03.414Z,11.31
2018-01-11T00:30:35.117Z,11.31
2018-01-11T00:33:11.526Z,11.27
2018-01-11T00:35:50.372Z,11.39
2018-01-11T00:38:21.253Z,11.33
2018-01-11T00:40:51.862Z,11.26
2018-01-11T00:43:24.644Z,10.99
2018-01-11T00:45:55.970Z,10.92
2018-01-11T00:48:26.779Z,10.80
2018-01-11T00:51:02.566Z,11.02
2018-01-11T00:53:34.244Z,11.31
2018-01-11T00:56:04.931Z,11.38
2018-01-11T00:58:36.090Z,11.47
2018-01-11T01:01:06.388Z,11.51
2018-01-11T01:03:39.218Z,11.54
2018-01-11T01:06:12.584Z,11.55
2018-01-11T01:08:44.198Z,11.55
2018-01-11T01:11:14.488Z,11.45
2018-01-11T01:13:45.751Z,11.28
2018-01-11T01:16:16.780Z,11.24
2018-01-11T01:18:48.518Z,11.15
2018-01-11T01:21:18.954Z,11.02
2018-01-11T01:23:49.916Z,10.98
2018-01-11T01:26:20.343Z,10.77
2018-01-11T01:31:37.149Z,10.76
2018-01-11T01:40:01.759Z,10.81
2018-01-11T01:42:32.422Z,10.77
2018-01-11T01:45:05.572Z,10.80
2018-01-11T01:47:36.312Z,10.63
2018-01-11T01:50:07.585Z,10.55
2018-01-11T01:52:38.468Z,10.43
2018-01-11T01:55:09.534Z,10.42
2018-01-11T01:57:39.832Z,10.30
2018-01-11T02:00:17.122Z,10.23
2018-01-11T02:02:47.597Z,10.54
2018-01-11T02:05:17.980Z,10.71
2018-01-11T02:07:48.448Z,10.85
2018-01-11T02:10:19.075Z,10.96
2018-01-11T02:12:50.202Z,11.04
2018-01-11T02:15:21.679Z,11.03
2018-01-11T02:21:38.357Z,11.02
2018-01-11T02:24:09.992Z,11.16
2018-01-11T02:26:41.288Z,11.12
2018-01-11T02:29:19.119Z,11.22
2018-01-11T02:34:55.882Z,11.26
2018-01-11T02:37:27.185Z,11.16
2018-01-11T02:39:58.341Z,10.82
2018-01-11T02:42:29.001Z,10.63
2018-01-11T02:44:59.798Z,10.68
2018-01-11T02:47:30.813Z,10.89
2018-01-11T02:50:01.900Z,11.00
2018-01-11T02:52:33.104Z,10.91
2018-01-11T02:55:03.850Z,10.96
2018-01-11T02:57:34.712Z,11.02
2018-01-11T03:00:11.121Z,10.97
2018-01-11T03:02:59.327Z,11.00
2018-01-11T03:05:30.179Z,10.97
2018-01-11T03:08:00.885Z,10.99
2018-01-11T03:10:31.883Z,10.92
2018-01-11T03:13:02.778Z,11.09
2018-01-11T03:15:33.911Z,11.11
2018-01-11T03:18:04.951Z,11.08
2018-01-11T03:20:36.326Z,11.18
2018-01-11T03:23:07.316Z,11.14
2018-01-11T03:25:37.833Z,11.23
2018-01-11T03:28:08.950Z,11.26
2018-01-11T03:30:39.980Z,11.29
2018-01-11T03:33:12.223Z,11.05
2018-01-11T03:35:43.068Z,11.26
2018-01-11T03:38:13.897Z,11.25
2018-01-11T03:40:44.565Z,11.21
2018-01-11T03:43:16.164Z,11.15
2018-01-11T03:45:46.772Z,11.15
2018-01-11T03:48:18.287Z,11.16
2018-01-11T03:50:48.890Z,11.23
2018-01-11T03:53:19.873Z,11.22
2018-01-11T03:55:50.517Z,11.23
2018-01-11T03:58:35.197Z,11.12
2018-01-11T04:01:07.770Z,10.96
2018-01-11T04:03:41.842Z,10.88
2018-01-11T04:06:15.874Z,10.83
2018-01-11T04:08:48.593Z,10.84
2018-01-11T04:11:21.054Z,10.89
2018-01-11T04:13:54.036Z,10.94
2018-01-11T04:16:27.332Z,10.95
2018-01-11T04:19:04.360Z,11.01
2018-01-11T04:21:38.146Z,11.12
2018-01-11T04:24:13.311Z,11.17
2018-01-11T04:26:49.301Z,11.21
2018-01-11T04:29:21.959Z,11.14
2018-01-11T04:31:55.019Z,10.92
2018-01-11T04:34:27.028Z,10.89
2018-01-11T04:36:58.181Z,10.88
2018-01-11T04:39:33.119Z,10.89
2018-01-11T04:42:09.836Z,10.84
2018-01-11T04:44:45.733Z,10.76
2018-01-11T04:47:19.989Z,10.72
2018-01-11T04:49:52.180Z,10.60
2018-01-11T04:52:25.596Z,10.58
2018-01-11T04:54:57.943Z,10.61
2018-01-11T04:57:30.092Z,10.60
2018-01-11T05:00:01.220Z,10.62
2018-01-11T05:02:34.193Z,10.62
2018-01-11T05:05:05.095Z,10.60
2018-01-11T05:07:35.688Z,10.59
2018-01-11T05:10:06.694Z,10.59
2018-01-11T05:12:37.541Z,10.55
2018-01-11T05:15:08.527Z,10.46
2018-01-11T05:17:41.459Z,10.53
2018-01-11T05:20:12.215Z,10.51
2018-01-11T05:22:44.317Z,10.48
2018-01-11T05:25:15.811Z,10.48
2018-01-11T05:27:46.454Z,10.45
2018-01-11T05:30:17.957Z,10.34
2018-01-11T05:32:48.971Z,10.36
2018-01-11T05:35:22.782Z,10.35
2018-01-11T05:37:54.159Z,10.38
2018-01-11T05:40:25.295Z,10.32
2018-01-11T05:42:55.886Z,10.28
2018-01-11T05:45:26.711Z,9.99
2018-01-11T05:47:58.181Z,9.92
2018-01-11T05:50:29.000Z,9.91
2018-01-11T05:52:59.633Z,9.97
2018-01-11T05:55:31.992Z,10.15
2018-01-11T05:58:02.796Z,10.33
2018-01-11T06:00:33.921Z,10.43
2018-01-11T06:03:04.753Z,10.51
2018-01-11T06:05:36.829Z,10.54
2018-01-11T06:08:08.523Z,10.59
2018-01-11T06:10:41.199Z,10.68
2018-01-11T06:13:13.467Z,10.78
2018-01-11T06:15:44.293Z,10.78
2018-01-11T06:18:15.106Z,10.86
2018-01-11T06:20:47.248Z,10.93
2018-01-11T06:23:20.210Z,10.96
2018-01-11T06:25:51.488Z,11.04
2018-01-11T06:28:23.222Z,11.07
2018-01-11T06:30:55.407Z,11.14
2018-01-11T06:33:26.065Z,11.17
2018-01-11T06:35:58.963Z,11.10
2018-01-11T06:38:30.228Z,11.16
2018-01-11T06:41:02.611Z,11.24
2018-01-11T06:43:34.554Z,11.25
2018-01-11T06:46:21.642Z,11.28
2018-01-11T06:48:54.385Z,11.17
2018-01-11T06:51:31.137Z,11.20
2018-01-11T06:54:07.598Z,11.21
2018-01-11T06:56:49.363Z,11.19
2018-01-11T06:59:21.702Z,11.15
2018-01-11T07:01:53.377Z,10.96
2018-01-11T07:04:25.571Z,11.09
2018-01-11T07:06:59.316Z,11.13
2018-01-11T07:09:30.921Z,11.22
2018-01-11T07:12:02.005Z,11.18
2018-01-11T07:14:36.285Z,11.22
2018-01-11T07:17:13.980Z,11.30
2018-01-11T07:19:47.498Z,11.37
2018-01-11T07:22:20.441Z,11.37
2018-01-11T07:24:52.119Z,11.36
2018-01-11T07:27:25.928Z,11.37
2018-01-11T07:29:57.054Z,11.36
2018-01-11T07:32:32.590Z,11.34
2018-01-11T07:35:04.611Z,11.31
2018-01-11T07:37:35.650Z,11.34
2018-01-11T07:40:06.505Z,11.34
2018-01-11T07:42:53.675Z,11.27
2018-01-11T07:45:24.510Z,11.32
2018-01-11T07:47:58.629Z,11.35
2018-01-11T07:50:32.727Z,11.40
2018-01-11T07:53:08.772Z,11.33
2018-01-11T07:55:40.950Z,11.09
2018-01-11T07:58:11.569Z,11.06
2018-01-11T08:00:43.418Z,11.16
2018-01-11T08:03:15.035Z,11.09
2018-01-11T08:05:48.674Z,11.12
2018-01-11T08:08:23.042Z,10.95
2018-01-11T08:10:59.402Z,10.71
2018-01-11T08:13:31.966Z,10.69
2018-01-11T08:16:04.457Z,10.84
2018-01-11T08:18:39.433Z,10.89
2018-01-11T08:21:15.635Z,10.93
2018-01-11T08:23:52.766Z,11.08
2018-01-11T08:26:28.864Z,11.19
2018-01-11T08:29:00.253Z,11.10
2018-01-11T08:31:31.627Z,10.93
2018-01-11T08:34:09.543Z,10.96
2018-01-11T08:36:41.959Z,11.14
2018-01-11T08:39:12.840Z,11.22
2018-01-11T08:41:44.998Z,11.35
2018-01-11T08:44:17.081Z,11.47
2018-01-11T08:46:48.093Z,11.47
2018-01-11T08:49:20.300Z,11.42
2018-01-11T08:51:51.714Z,11.64
2018-01-11T08:54:24.275Z,11.62
2018-01-11T08:56:55.457Z,11.65
2018-01-11T08:59:28.528Z,11.60
2018-01-11T09:02:00.285Z,11.71
2018-01-11T09:04:31.142Z,11.75
2018-01-11T09:07:02.737Z,11.67
2018-01-11T09:09:37.203Z,11.86
2018-01-11T09:12:13.428Z,12.00
2018-01-11T09:14:45.015Z,11.99
2018-01-11T09:17:19.206Z,11.96
2018-01-11T09:19:56.108Z,11.94
2018-01-11T09:22:28.454Z,12.03
2018-01-11T09:25:13.033Z,12.14
2018-01-11T09:27:45.932Z,12.19
2018-01-11T09:30:18.235Z,12.32
2018-01-11T09:32:51.740Z,12.42
2018-01-11T09:35:23.613Z,12.55
2018-01-11T09:37:54.456Z,12.70
2018-01-11T09:43:22.154Z,12.82
2018-01-11T09:45:53.364Z,12.81
2018-01-11T09:48:24.891Z,12.83
2018-01-11T09:50:57.786Z,12.95
2018-01-11T09:53:29.882Z,12.80
2018-01-11T09:56:01.485Z,12.93
2018-01-11T09:58:36.438Z,13.03
2018-01-11T10:01:07.820Z,13.08
2018-01-11T10:03:39.413Z,13.14
2018-01-11T10:06:17.777Z,13.18
2018-01-11T10:08:55.575Z,13.27
2018-01-11T10:11:28.632Z,13.29
2018-01-11T10:14:00.315Z,13.44
2018-01-11T10:16:31.261Z,13.49
2018-01-11T10:19:02.321Z,13.44
2018-01-11T10:21:34.314Z,13.62
2018-01-11T10:24:07.205Z,13.45
2018-01-11T10:26:39.973Z,13.66
2018-01-11T10:29:11.698Z,13.33
2018-01-11T10:31:44.071Z,13.19
2018-01-11T10:34:15.768Z,13.52
2018-01-11T10:36:47.466Z,13.60
2018-01-11T10:39:19.055Z,13.55
2018-01-11T10:41:50.875Z,13.45
2018-01-11T10:44:23.933Z,13.30
2018-01-11T10:46:55.274Z,13.29
2018-01-11T10:49:26.572Z,13.37
2018-01-11T10:51:59.989Z,13.33
2018-01-11T10:54:32.114Z,13.12
2018-01-11T10:57:03.228Z,13.24
2018-01-11T10:59:34.874Z,13.20
2018-01-11T11:02:22.233Z,13.09
2018-01-11T11:04:53.964Z,12.99
2018-01-11T11:07:29.247Z,12.77
2018-01-11T11:10:02.320Z,12.69
2018-01-11T11:12:35.035Z,12.59
2018-01-11T11:15:09.550Z,12.86
2018-01-11T11:17:44.064Z,12.99
2018-01-11T11:20:16.275Z,13.26
2018-01-11T11:22:50.150Z,13.17
2018-01-11T11:25:22.459Z,13.09
2018-01-11T11:27:54.074Z,13.06
2018-01-11T11:30:25.862Z,13.19
2018-01-11T11:32:58.625Z,13.36
2018-01-11T11:35:30.763Z,13.48
2018-01-11T11:38:07.336Z,13.36
2018-01-11T11:40:38.384Z,13.44
2018-01-11T11:43:10.013Z,13.61
2018-01-11T11:45:41.979Z,13.47
2018-01-11T11:48:13.227Z,13.28
2018-01-11T11:50:44.262Z,13.10
2018-01-11T11:53:17.451Z,13.28
2018-01-11T11:55:50.875Z,13.21
2018-01-11T11:58:21.652Z,13.21
2018-01-11T12:00:55.815Z,13.38
2018-01-11T12:03:27.355Z,13.38
2018-01-11T12:05:59.346Z,13.47
2018-01-11T12:08:32.347Z,14.35
2018-01-11T12:11:14.051Z,15.13
2018-01-11T12:13:45.669Z,15.47
2018-01-11T12:16:17.858Z,15.85
2018-01-11T12:18:52.861Z,16.45
2018-01-11T12:21:24.970Z,16.55
2018-01-11T12:23:55.784Z,16.70
2018-01-11T12:26:28.406Z,17.01
2018-01-11T12:29:00.204Z,17.03
2018-01-11T12:31:32.129Z,17.13
2018-01-11T12:34:02.863Z,17.11
2018-01-11T12:36:39.843Z,17.20
2018-01-11T12:39:12.862Z,17.87
2018-01-11T12:41:44.815Z,18.00
2018-01-11T12:44:18.095Z,18.06
2018-01-11T12:46:51.199Z,18.11
2018-01-11T12:49:23.364Z,17.90
2018-01-11T12:51:55.044Z,17.72
2018-01-11T12:54:26.282Z,17.46
2018-01-11T12:56:57.361Z,16.93
2018-01-11T12:59:28.523Z,16.73
2018-01-11T13:02:00.909Z,16.59
2018-01-11T13:04:32.315Z,16.64
2018-01-11T13:07:03.053Z,16.56
2018-01-11T13:09:36.602Z,16.44
2018-01-11T13:12:07.446Z,16.13
2018-01-11T13:14:38.332Z,15.96
2018-01-11T13:17:09.279Z,15.89
2018-01-11T13:19:40.664Z,15.79
2018-01-11T13:22:12.771Z,15.53
2018-01-11T13:24:44.319Z,15.46
2018-01-11T13:27:15.857Z,15.24
2018-01-11T13:29:46.577Z,14.70
2018-01-11T13:32:25.760Z,14.28
2018-01-11T13:34:58.780Z,14.16
2018-01-11T13:37:30.920Z,14.09
2018-01-11T13:40:02.216Z,14.08
2018-01-11T13:42:33.361Z,13.95
2018-01-11T13:45:08.619Z,13.88
2018-01-11T13:47:39.673Z,13.79
2018-01-11T13:50:12.589Z,13.63
2018-01-11T13:52:44.011Z,13.61
2018-01-11T13:55:15.696Z,13.74
2018-01-11T13:57:50.814Z,13.71
2018-01-11T14:00:25.306Z,13.67
2018-01-11T14:02:59.359Z,13.46
2018-01-11T14:05:31.983Z,13.49
2018-01-11T14:08:05.375Z,13.47
2018-01-11T14:10:39.470Z,13.22
2018-01-11T14:13:10.742Z,13.10
2018-01-11T14:15:42.099Z,12.83
2018-01-11T14:18:12.998Z,12.83
2018-01-11T14:20:45.013Z,12.98
2018-01-11T14:23:33.055Z,13.04
2018-01-11T14:26:04.874Z,13.09
2018-01-11T14:28:35.849Z,13.06
2018-01-11T14:34:07.542Z,12.97
2018-01-11T14:36:40.454Z,12.99
2018-01-11T14:39:11.615Z,12.85
2018-01-11T14:41:45.327Z,12.73
2018-01-11T14:44:18.307Z,12.61
2018-01-11T14:46:50.449Z,12.61
2018-01-11T14:49:24.465Z,12.68
2018-01-11T14:51:56.549Z,12.69
2018-01-11T14:54:27.617Z,12.64
2018-01-11T14:57:00.922Z,12.58
2018-01-11T14:59:37.432Z,12.53
2018-01-11T15:02:08.802Z,12.52
2018-01-11T15:04:40.884Z,12.51
2018-01-11T15:07:15.382Z,12.42
2018-01-11T15:09:51.099Z,12.33
2018-01-11T15:12:22.312Z,12.26
2018-01-11T15:14:54.124Z,12.39
2018-01-11T15:17:26.566Z,12.31
2018-01-11T15:19:57.667Z,12.26
2018-01-11T15:22:29.818Z,12.36
2018-01-11T15:25:00.771Z,12.44
2018-01-11T15:27:33.511Z,12.50
2018-01-11T15:30:07.284Z,12.43
2018-01-11T15:32:41.101Z,12.31
2018-01-11T15:35:20.239Z,12.21
2018-01-11T15:37:56.481Z,12.15
2018-01-11T15:40:31.816Z,12.10
2018-01-11T15:43:03.908Z,12.06
2018-01-11T15:45:35.988Z,12.22
2018-01-11T15:48:07.211Z,12.31
2018-01-11T15:50:38.345Z,12.39
2018-01-11T15:53:10.083Z,12.31
2018-01-11T15:55:44.044Z,12.31
2018-01-11T15:58:21.240Z,12.26
2018-01-11T16:01:02.799Z,12.22
2018-01-11T16:03:36.225Z,12.39
2018-01-11T16:06:10.162Z,12.48
2018-01-11T16:08:45.982Z,12.55
2018-01-11T16:11:18.228Z,12.56
2018-01-11T16:13:54.021Z,12.47
2018-01-11T16:16:26.408Z,12.50
2018-01-11T16:19:00.154Z,12.48
2018-01-11T16:21:32.815Z,12.01
2018-01-11T16:24:06.675Z,12.33
2018-01-11T16:26:38.255Z,12.49
2018-01-11T16:29:13.621Z,12.51
2018-01-11T16:32:01.769Z,12.55
2018-01-11T16:34:35.225Z,12.46
2018-01-11T16:37:09.556Z,12.59
2018-01-11T16:39:41.277Z,12.66
2018-01-11T16:42:18.931Z,12.68
2018-01-11T16:47:38.161Z,12.41
2018-01-11T16:50:09.424Z,12.33
2018-01-11T16:52:42.820Z,12.31
2018-01-11T16:55:14.110Z,12.19
2018-01-11T16:57:45.589Z,11.96
2018-01-11T17:00:20.558Z,11.93
2018-01-11T17:03:00.452Z,11.97
2018-01-11T17:05:37.354Z,12.00
2018-01-11T17:08:14.105Z,12.05
2018-01-11T17:10:52.193Z,12.12
2018-01-11T17:13:24.555Z,12.10
2018-01-11T17:15:58.873Z,12.15
2018-01-11T17:18:37.316Z,12.15
2018-01-11T17:21:22.811Z,12.25
2018-01-11T17:23:59.519Z,12.16
2018-01-11T17:26:36.987Z,12.16
2018-01-11T17:29:11.317Z,12.07
2018-01-11T17:31:43.530Z,11.71
2018-01-11T17:36:56.033Z,11.80
2018-01-11T17:39:28.504Z,11.84
2018-01-11T17:42:06.097Z,11.79
2018-01-11T17:44:40.634Z,11.50
2018-01-11T17:47:13.828Z,11.81
2018-01-11T17:49:49.414Z,11.67
2018-01-11T17:52:22.951Z,11.73
2018-01-11T17:54:59.426Z,11.83
2018-01-11T17:57:34.631Z,11.86
2018-01-11T18:00:10.289Z,11.70
2018-01-11T18:03:02.736Z,11.69
2018-01-11T18:05:36.679Z,11.62
2018-01-11T18:08:08.910Z,11.56
2018-01-11T18:10:41.201Z,11.48
2018-01-11T18:13:14.983Z,11.59
2018-01-11T18:15:48.053Z,11.76
2018-01-11T18:18:20.916Z,11.71
2018-01-11T18:20:57.624Z,11.72
2018-01-11T18:23:31.256Z,11.68
2018-01-11T18:26:06.715Z,11.68
2018-01-11T18:28:38.852Z,11.66
2018-01-11T18:31:10.813Z,11.77
2018-01-11T18:33:42.776Z,11.80
2018-01-11T18:36:18.419Z,11.58
2018-01-11T18:38:51.033Z,11.63
2018-01-11T18:41:23.195Z,11.67
2018-01-11T18:43:54.961Z,11.67
2018-01-11T18:46:28.997Z,11.65
2018-01-11T18:49:02.891Z,11.78
2018-01-11T18:51:35.501Z,11.70
2018-01-11T18:54:08.426Z,11.66
2018-01-11T18:56:43.160Z,11.68
2018-01-11T18:59:15.323Z,11.49
2018-01-11T19:01:49.705Z,11.53
2018-01-11T19:04:22.166Z,11.55
2018-01-11T19:06:55.254Z,11.68
2018-01-11T19:09:29.641Z,11.65
2018-01-11T19:12:02.677Z,11.52
2018-01-11T19:14:38.511Z,11.52
2018-01-11T19:17:13.579Z,11.54
2018-01-11T19:19:47.459Z,11.44
2018-01-11T19:22:22.602Z,11.32
2018-01-11T19:24:55.490Z,11.43
2018-01-11T19:27:29.847Z,11.49
2018-01-11T19:30:10.487Z,11.59
2018-01-11T19:32:55.054Z,11.46
2018-01-11T19:35:28.264Z,11.55
2018-01-11T19:38:00.710Z,11.33
2018-01-11T19:40:35.802Z,11.40
2018-01-11T19:43:16.046Z,11.44
2018-01-11T19:45:50.027Z,11.32
2018-01-11T19:48:25.758Z,11.29
2018-01-11T19:51:10.013Z,11.34
2018-01-11T19:53:47.289Z,11.58
2018-01-11T19:56:22.197Z,11.56
2018-01-11T19:58:58.136Z,11.50
2018-01-11T20:01:36.590Z,11.45
2018-01-11T20:04:12.096Z,11.41
2018-01-11T20:06:50.702Z,11.49
2018-01-11T20:09:27.861Z,11.39
2018-01-11T20:12:11.462Z,11.27
2018-01-11T20:14:46.545Z,11.17
2018-01-11T20:17:21.045Z,11.18
2018-01-11T20:19:59.724Z,11.21
2018-01-11T20:22:33.104Z,11.21
2018-01-11T20:25:09.158Z,11.17
2018-01-11T20:27:45.671Z,11.10
2018-01-11T20:30:22.061Z,11.08
2018-01-11T20:32:58.110Z,11.11
2018-01-11T20:35:31.513Z,10.99
2018-01-11T20:38:05.630Z,10.95
2018-01-11T20:40:40.232Z,10.96
2018-01-11T20:43:16.003Z,11.02
2018-01-11T20:45:50.149Z,10.86
2018-01-11T20:48:23.973Z,10.78
2018-01-11T20:50:57.051Z,10.79
2018-01-11T20:53:31.716Z,10.80
2018-01-11T20:56:05.023Z,10.80
2018-01-11T20:58:40.225Z,10.83
2018-01-11T21:01:13.762Z,10.91
2018-01-11T21:03:48.411Z,11.01
2018-01-11T21:06:23.243Z,11.15
2018-01-11T21:09:04.213Z,11.20
2018-01-11T21:11:41.220Z,11.24
2018-01-11T21:14:14.857Z,11.28
2018-01-11T21:16:50.779Z,11.25
2018-01-11T21:19:23.739Z,11.34
2018-01-11T21:22:05.386Z,11.38
2018-01-11T21:24:37.828Z,11.09
2018-01-11T21:27:11.668Z,10.91
2018-01-11T21:29:45.637Z,11.04
2018-01-11T21:32:18.590Z,11.10
2018-01-11T21:34:55.480Z,11.18
2018-01-11T21:37:30.069Z,11.18
2018-01-11T21:40:06.719Z,11.16
2018-01-11T21:42:40.081Z,11.25
2018-01-11T21:45:15.623Z,11.05
2018-01-11T21:47:48.027Z,11.16
2018-01-11T21:50:19.480Z,10.99
2018-01-11T21:52:52.597Z,10.93
2018-01-11T21:55:24.881Z,10.87
2018-01-11T21:57:57.579Z,10.84
2018-01-11T22:00:29.467Z,10.76
2018-01-11T22:03:00.232Z,10.87
2018-01-11T22:05:31.080Z,10.78
2018-01-11T22:08:01.995Z,10.89
2018-01-11T22:10:33.751Z,10.87
2018-01-11T22:13:05.282Z,10.94
2018-01-11T22:18:08.300Z,10.80
2018-01-11T22:20:39.897Z,10.86
2018-01-11T22:23:10.762Z,10.85
2018-01-11T22:25:41.225Z,10.72
2018-01-11T22:28:12.672Z,10.47
2018-01-11T22:30:44.439Z,10.37
2018-01-11T22:33:16.560Z,10.36
2018-01-11T22:35:47.363Z,10.48
2018-01-11T22:38:18.543Z,10.46
2018-01-11T22:40:49.513Z,10.53
2018-01-11T22:43:21.592Z,10.60
2018-01-11T22:45:53.665Z,10.55
2018-01-11T22:48:24.976Z,10.55
2018-01-11T22:50:55.907Z,10.52
2018-01-11T22:53:26.982Z,10.57
2018-01-11T22:55:57.953Z,10.49
2018-01-11T22:58:28.714Z,10.48
2018-01-11T23:00:59.896Z,10.44
2018-01-11T23:03:30.717Z,10.64
2018-01-11T23:06:01.525Z,10.66
2018-01-11T23:08:32.396Z,10.54
2018-01-11T23:11:05.104Z,10.61
2018-01-11T23:13:36.663Z,10.50
2018-01-11T23:16:07.548Z,10.48
2018-01-11T23:18:38.331Z,10.54
2018-01-11T23:21:09.037Z,10.53
2018-01-11T23:23:39.336Z,10.67
2018-01-11T23:26:09.759Z,10.78
2018-01-11T23:28:40.218Z,10.82
2018-01-11T23:31:10.984Z,10.65
2018-01-11T23:33:42.832Z,10.55
2018-01-11T23:36:13.311Z,10.62
2018-01-11T23:38:44.152Z,10.56
2018-01-11T23:41:21.275Z,10.58
2018-01-11T23:43:51.806Z,10.65
2018-01-11T23:46:23.487Z,10.71
2018-01-11T23:48:54.582Z,10.50
2018-01-11T23:51:31.493Z,10.25
2018-01-11T23:54:02.129Z,10.20
2018-01-11T23:56:32.750Z,10.14
2018-01-11T23:59:03.853Z,10.28
